createdAt,value
2019-02-24T00:00:44.601Z,3.90
2019-02-24T00:03:15.285Z,4.20
2019-02-24T00:05:45.889Z,2.47
2019-02-24T00:08:16.525Z,2.90
2019-02-24T00:10:47.238Z,2.77
2019-02-24T00:13:17.862Z,2.63
2019-02-24T00:15:48.470Z,2.63
2019-02-24T00:18:19.086Z,3.53
2019-02-24T00:20:49.617Z,3.40
2019-02-24T00:23:20.322Z,3.57
2019-02-24T00:25:50.849Z,4.43
2019-02-24T00:28:21.381Z,4.90
2019-02-24T00:30:51.898Z,2.70
2019-02-24T00:33:22.526Z,4.60
2019-02-24T00:35:53.126Z,3.77
2019-02-24T00:38:23.684Z,3.80
2019-02-24T00:40:54.288Z,7.50
2019-02-24T00:43:24.905Z,3.40
2019-02-24T00:45:55.439Z,2.40
2019-02-24T00:48:26.052Z,5.10
2019-02-24T00:50:56.593Z,5.40
2019-02-24T00:53:27.212Z,4.73
2019-02-24T00:55:58.886Z,3.40
2019-02-24T00:58:29.513Z,3.90
2019-02-24T01:01:00.116Z,3.63
2019-02-24T01:03:31.754Z,3.87
2019-02-24T01:06:02.426Z,5.97
2019-02-24T01:08:33.120Z,5.27
2019-02-24T01:11:03.817Z,4.47
2019-02-24T01:13:34.435Z,4.73
2019-02-24T01:16:05.048Z,4.40
2019-02-24T01:18:35.821Z,6.20
2019-02-24T01:21:06.430Z,4.00
2019-02-24T01:23:36.969Z,5.53
2019-02-24T01:26:07.488Z,3.80
2019-02-24T01:28:38.040Z,5.67
2019-02-24T01:31:08.637Z,4.17
2019-02-24T01:33:39.252Z,2.87
2019-02-24T01:36:09.853Z,2.00
2019-02-24T01:38:40.418Z,3.07
2019-02-24T01:41:10.946Z,3.63
2019-02-24T01:43:41.524Z,3.80
2019-02-24T01:46:12.089Z,4.53
2019-02-24T01:48:42.709Z,5.50
2019-02-24T01:51:13.237Z,3.83
2019-02-24T01:53:43.800Z,4.70
2019-02-24T01:56:15.585Z,6.60
2019-02-24T01:58:46.144Z,6.43
2019-02-24T02:01:16.760Z,4.20
2019-02-24T02:03:47.289Z,4.27
2019-02-24T02:06:17.920Z,4.43
2019-02-24T02:08:48.514Z,2.93
2019-02-24T02:11:19.624Z,4.50
2019-02-24T02:13:50.158Z,3.20
2019-02-24T02:16:20.731Z,2.60
2019-02-24T02:18:51.413Z,3.97
2019-02-24T02:21:22.043Z,4.93
2019-02-24T02:23:52.648Z,3.57
2019-02-24T02:26:24.423Z,4.30
2019-02-24T02:28:55.114Z,4.50
2019-02-24T02:31:25.814Z,4.47
2019-02-24T02:33:56.418Z,4.67
2019-02-24T02:36:27.032Z,5.67
2019-02-24T02:38:57.633Z,3.03
2019-02-24T02:41:28.258Z,2.83
2019-02-24T02:43:58.934Z,3.33
2019-02-24T02:46:29.549Z,3.03
2019-02-24T02:49:00.149Z,4.57
2019-02-24T02:51:30.847Z,6.60
2019-02-24T02:54:01.476Z,3.87
2019-02-24T02:56:33.063Z,3.30
2019-02-24T02:59:03.700Z,2.60
2019-02-24T03:01:34.317Z,3.33
2019-02-24T03:04:04.922Z,2.47
2019-02-24T03:06:39.932Z,2.43
2019-02-24T03:09:11.552Z,2.43
2019-02-24T03:11:42.201Z,4.03
2019-02-24T03:14:12.721Z,2.60
2019-02-24T03:16:43.440Z,2.20
2019-02-24T03:19:15.013Z,4.70
2019-02-24T03:21:45.643Z,2.27
2019-02-24T03:24:16.329Z,4.50
2019-02-24T03:26:46.883Z,3.60
2019-02-24T03:29:17.495Z,4.00
2019-02-24T03:31:48.112Z,3.33
2019-02-24T03:34:18.715Z,3.40
2019-02-24T03:36:50.493Z,3.30
2019-02-24T03:39:21.018Z,2.93
2019-02-24T03:41:51.637Z,3.00
2019-02-24T03:44:23.414Z,5.20
2019-02-24T03:46:54.037Z,4.43
2019-02-24T03:49:24.654Z,4.77
2019-02-24T03:51:55.385Z,3.60
2019-02-24T03:54:25.989Z,4.70
2019-02-24T03:56:56.708Z,3.57
2019-02-24T03:59:27.329Z,4.30
2019-02-24T04:01:57.977Z,4.33
2019-02-24T04:04:28.517Z,4.03
2019-02-24T04:06:59.069Z,3.93
2019-02-24T04:09:29.749Z,5.23
2019-02-24T04:12:00.319Z,6.87
2019-02-24T04:14:30.858Z,2.53
2019-02-24T04:17:01.422Z,5.57
2019-02-24T04:19:32.026Z,3.40
2019-02-24T04:22:02.736Z,3.80
2019-02-24T04:24:33.339Z,4.77
2019-02-24T04:27:03.906Z,3.63
2019-02-24T04:29:34.600Z,3.73
2019-02-24T04:32:07.302Z,3.90
2019-02-24T04:34:37.845Z,3.87
2019-02-24T04:37:08.560Z,4.97
2019-02-24T04:39:39.161Z,4.80
2019-02-24T04:42:09.720Z,4.70
2019-02-24T04:44:40.330Z,5.70
2019-02-24T04:47:10.962Z,4.37
2019-02-24T04:49:41.585Z,3.17
2019-02-24T04:52:12.145Z,5.23
2019-02-24T04:54:42.678Z,4.37
2019-02-24T04:57:13.301Z,3.63
2019-02-24T04:59:43.846Z,4.37
2019-02-24T05:02:14.473Z,3.93
2019-02-24T05:04:45.082Z,3.80
2019-02-24T05:07:15.717Z,7.40
2019-02-24T05:09:46.397Z,7.37
2019-02-24T05:12:16.980Z,8.10
2019-02-24T05:14:47.587Z,14.67
2019-02-24T05:17:18.289Z,19.20
2019-02-24T05:19:48.907Z,19.60
2019-02-24T05:22:19.539Z,19.33
2019-02-24T05:24:50.153Z,9.50
2019-02-24T05:27:20.697Z,4.80
2019-02-24T05:29:51.320Z,5.10
2019-02-24T05:32:21.946Z,6.23
2019-02-24T05:34:52.633Z,3.53
2019-02-24T05:37:23.261Z,4.33
2019-02-24T05:39:53.874Z,5.70
2019-02-24T05:42:24.504Z,6.90
2019-02-24T05:44:55.132Z,4.03
2019-02-24T05:47:25.729Z,5.10
2019-02-24T05:49:56.334Z,6.20
2019-02-24T05:52:26.957Z,4.43
2019-02-24T05:54:57.651Z,6.23
2019-02-24T05:57:28.281Z,6.27
2019-02-24T05:59:58.957Z,4.40
2019-02-24T06:02:29.641Z,5.80
2019-02-24T06:05:00.233Z,6.80
2019-02-24T06:07:30.809Z,5.07
2019-02-24T06:10:01.391Z,4.40
2019-02-24T06:12:32.069Z,5.50
2019-02-24T06:15:02.636Z,5.30
2019-02-24T06:17:33.234Z,4.50
2019-02-24T06:20:03.944Z,4.63
2019-02-24T06:22:34.480Z,5.30
2019-02-24T06:25:05.037Z,4.43
2019-02-24T06:27:35.646Z,4.60
2019-02-24T06:30:06.419Z,7.40
2019-02-24T06:32:37.023Z,6.50
2019-02-24T06:35:08.102Z,6.57
2019-02-24T06:37:38.713Z,8.70
2019-02-24T06:40:09.338Z,9.60
2019-02-24T06:42:40.174Z,7.97
2019-02-24T06:45:10.769Z,9.20
2019-02-24T06:47:41.393Z,7.03
2019-02-24T06:50:11.982Z,7.27
2019-02-24T06:52:42.521Z,4.37
2019-02-24T06:55:13.233Z,7.13
2019-02-24T06:57:43.933Z,6.33
2019-02-24T07:00:14.589Z,5.07
2019-02-24T07:02:45.321Z,12.03
2019-02-24T07:05:15.958Z,7.37
2019-02-24T07:07:46.540Z,9.40
2019-02-24T07:10:17.141Z,10.37
2019-02-24T07:12:47.717Z,7.03
2019-02-24T07:15:18.341Z,6.87
2019-02-24T07:17:48.947Z,6.70
2019-02-24T07:20:19.645Z,7.53
2019-02-24T07:22:50.363Z,11.20
2019-02-24T07:25:21.018Z,40.03
2019-02-24T07:27:51.633Z,9.93
2019-02-24T07:30:23.763Z,9.87
2019-02-24T07:32:54.574Z,11.87
2019-02-24T07:35:25.210Z,8.83
2019-02-24T07:37:55.805Z,7.37
2019-02-24T07:40:26.425Z,5.93
2019-02-24T07:42:56.957Z,5.70
2019-02-24T07:45:27.577Z,4.50
2019-02-24T07:47:58.113Z,6.43
2019-02-24T07:50:28.744Z,5.33
2019-02-24T07:52:59.348Z,5.17
2019-02-24T07:55:29.901Z,4.80
2019-02-24T07:58:00.434Z,3.80
2019-02-24T08:00:32.477Z,8.30
2019-02-24T08:03:03.348Z,9.13
2019-02-24T08:05:33.970Z,5.83
2019-02-24T08:08:04.593Z,7.50
2019-02-24T08:10:35.217Z,5.90
2019-02-24T08:13:05.764Z,8.53
2019-02-24T08:15:36.461Z,7.33
2019-02-24T08:18:06.990Z,8.03
2019-02-24T08:20:37.619Z,6.00
2019-02-24T08:23:08.289Z,10.00
2019-02-24T08:25:38.913Z,7.07
2019-02-24T08:28:09.524Z,7.13
2019-02-24T08:30:41.911Z,10.33
2019-02-24T08:33:12.646Z,7.30
2019-02-24T08:35:43.258Z,6.60
2019-02-24T08:38:15.013Z,7.07
2019-02-24T08:40:45.640Z,6.90
2019-02-24T08:43:16.174Z,6.37
2019-02-24T08:45:46.801Z,8.33
2019-02-24T08:48:19.173Z,10.70
2019-02-24T08:50:49.581Z,5.20
2019-02-24T08:53:20.118Z,5.73
2019-02-24T08:55:50.682Z,5.80
2019-02-24T08:58:21.762Z,4.90
2019-02-24T09:00:52.381Z,8.10
2019-02-24T09:03:24.145Z,7.60
2019-02-24T09:05:54.772Z,6.70
2019-02-24T09:08:25.386Z,6.10
2019-02-24T09:10:55.974Z,6.43
2019-02-24T09:13:26.614Z,9.60
2019-02-24T09:15:57.586Z,5.30
2019-02-24T09:18:28.262Z,5.90
2019-02-24T09:20:58.813Z,4.63
2019-02-24T09:23:29.352Z,6.70
2019-02-24T09:25:59.991Z,5.50
2019-02-24T09:28:30.598Z,6.10
2019-02-24T09:31:01.275Z,5.10
2019-02-24T09:33:31.837Z,6.00
2019-02-24T09:36:02.461Z,5.90
2019-02-24T09:38:33.074Z,6.70
2019-02-24T09:41:03.713Z,5.33
2019-02-24T09:43:34.234Z,6.57
2019-02-24T09:46:04.794Z,8.30
2019-02-24T09:48:35.544Z,6.67
2019-02-24T09:51:06.185Z,7.13
2019-02-24T09:53:36.750Z,5.67
2019-02-24T09:56:07.329Z,6.83
2019-02-24T09:58:37.853Z,5.33
2019-02-24T10:01:10.913Z,3.37
2019-02-24T10:03:40.637Z,4.37
2019-02-24T10:06:11.276Z,3.30
2019-02-24T10:08:41.865Z,4.20
2019-02-24T10:11:13.282Z,4.60
2019-02-24T10:13:43.920Z,3.40
2019-02-24T10:16:14.581Z,3.00
2019-02-24T10:18:45.185Z,5.57
2019-02-24T10:21:15.837Z,4.00
2019-02-24T10:23:46.463Z,2.80
2019-02-24T10:26:17.082Z,5.70
2019-02-24T10:28:47.896Z,3.77
2019-02-24T10:31:20.288Z,6.47
2019-02-24T10:33:50.925Z,4.93
2019-02-24T10:36:21.504Z,4.80
2019-02-24T10:38:52.115Z,3.97
2019-02-24T10:41:22.738Z,4.10
2019-02-24T10:43:53.418Z,3.37
2019-02-24T10:46:23.990Z,6.47
2019-02-24T10:49:03.087Z,6.00
2019-02-24T10:51:27.025Z,5.10
2019-02-24T10:53:57.637Z,2.93
2019-02-24T10:56:28.369Z,3.63
2019-02-24T10:58:59.011Z,3.40
2019-02-24T11:01:31.300Z,3.13
2019-02-24T11:04:01.912Z,4.30
2019-02-24T11:06:35.260Z,4.27
2019-02-24T11:09:07.434Z,3.10
2019-02-24T11:11:38.128Z,5.80
2019-02-24T11:14:08.740Z,3.53
2019-02-24T11:16:39.408Z,3.23
2019-02-24T11:19:10.102Z,4.10
2019-02-24T11:21:40.830Z,3.77
2019-02-24T11:24:12.767Z,3.90
2019-02-24T11:26:43.485Z,2.60
2019-02-24T11:29:14.101Z,3.17
2019-02-24T11:31:44.665Z,3.60
2019-02-24T11:34:15.281Z,4.00
2019-02-24T11:36:45.958Z,3.90
2019-02-24T11:39:16.570Z,5.23
2019-02-24T11:41:47.285Z,3.90
2019-02-24T11:44:17.992Z,2.70
2019-02-24T11:46:48.653Z,2.97
2019-02-24T11:49:20.234Z,3.87
2019-02-24T11:51:50.890Z,3.47
2019-02-24T11:54:21.424Z,3.63
2019-02-24T11:56:52.180Z,3.33
2019-02-24T11:59:22.884Z,3.33
2019-02-24T12:01:53.684Z,2.30
2019-02-24T12:04:24.312Z,3.17
2019-02-24T12:06:54.977Z,2.30
2019-02-24T12:09:25.582Z,2.77
2019-02-24T12:11:56.239Z,3.87
2019-02-24T12:14:26.942Z,2.67
2019-02-24T12:16:57.533Z,3.73
2019-02-24T12:19:28.163Z,2.93
2019-02-24T12:21:58.833Z,3.23
2019-02-24T12:24:29.469Z,3.50
2019-02-24T12:27:00.101Z,4.27
2019-02-24T12:29:31.901Z,3.50
2019-02-24T12:32:02.594Z,3.10
2019-02-24T12:34:33.225Z,6.23
2019-02-24T12:37:03.805Z,3.03
2019-02-24T12:39:34.501Z,2.50
2019-02-24T12:42:05.136Z,2.57
2019-02-24T12:44:35.869Z,2.87
2019-02-24T12:47:06.491Z,2.80
2019-02-24T12:49:37.192Z,4.30
2019-02-24T12:52:07.880Z,3.67
2019-02-24T12:54:38.533Z,2.70
2019-02-24T12:57:09.223Z,4.60
2019-02-24T12:59:39.937Z,9.50
2019-02-24T13:02:10.562Z,4.67
2019-02-24T13:04:41.265Z,2.70
2019-02-24T13:07:11.847Z,2.87
2019-02-24T13:09:42.520Z,3.30
2019-02-24T13:12:13.245Z,2.87
2019-02-24T13:14:43.868Z,3.30
2019-02-24T13:17:14.407Z,2.47
2019-02-24T13:19:45.033Z,2.50
2019-02-24T13:22:15.584Z,2.77
2019-02-24T13:24:46.609Z,3.80
2019-02-24T13:27:17.209Z,3.57
2019-02-24T13:29:47.870Z,3.20
2019-02-24T13:32:18.555Z,3.50
2019-02-24T13:34:49.251Z,2.33
2019-02-24T13:37:19.874Z,2.57
2019-02-24T13:39:50.594Z,2.83
2019-02-24T13:42:21.201Z,3.37
2019-02-24T13:44:51.841Z,2.20
2019-02-24T13:47:22.449Z,3.47
2019-02-24T13:49:53.086Z,2.70
2019-02-24T13:52:23.768Z,2.17
2019-02-24T13:54:54.479Z,2.30
2019-02-24T13:57:25.202Z,2.87
2019-02-24T13:59:55.899Z,2.10
2019-02-24T14:02:26.576Z,3.10
2019-02-24T14:04:57.213Z,2.50
2019-02-24T14:07:27.908Z,2.70
2019-02-24T14:09:58.618Z,3.30
2019-02-24T14:12:29.261Z,2.87
2019-02-24T14:14:59.905Z,2.13
2019-02-24T14:17:30.509Z,1.97
2019-02-24T14:20:01.062Z,2.80
2019-02-24T14:22:31.680Z,2.87
2019-02-24T14:25:02.300Z,2.50
2019-02-24T14:27:32.862Z,3.53
2019-02-24T14:30:03.589Z,2.40
2019-02-24T14:32:34.194Z,2.50
2019-02-24T14:35:05.411Z,3.57
2019-02-24T14:37:36.110Z,5.50
2019-02-24T14:40:07.266Z,2.20
2019-02-24T14:42:37.960Z,4.07
2019-02-24T14:45:11.727Z,4.33
2019-02-24T14:47:42.357Z,4.07
2019-02-24T14:50:13.057Z,2.87
2019-02-24T14:52:43.743Z,4.83
2019-02-24T14:55:14.424Z,2.03
2019-02-24T14:57:45.046Z,5.00
2019-02-24T15:00:16.844Z,2.70
2019-02-24T15:02:47.619Z,3.53
2019-02-24T15:05:18.257Z,2.53
2019-02-24T15:07:48.865Z,2.87
2019-02-24T15:10:19.621Z,3.73
2019-02-24T15:12:50.245Z,3.30
2019-02-24T15:15:20.944Z,2.50
2019-02-24T15:17:51.631Z,5.23
2019-02-24T15:20:22.299Z,3.10
2019-02-24T15:22:52.921Z,3.40
2019-02-24T15:25:23.536Z,4.40
2019-02-24T15:27:54.232Z,5.00
2019-02-24T15:30:29.919Z,2.53
2019-02-24T15:33:00.545Z,2.57
2019-02-24T15:35:31.262Z,2.73
2019-02-24T15:38:01.945Z,2.20
2019-02-24T15:40:32.656Z,3.87
2019-02-24T15:43:03.338Z,3.13
2019-02-24T15:45:34.046Z,2.33
2019-02-24T15:48:04.661Z,2.33
2019-02-24T15:50:35.321Z,3.03
2019-02-24T15:53:06.037Z,3.17
2019-02-24T15:55:36.670Z,6.80
2019-02-24T15:58:07.365Z,3.00
2019-02-24T16:00:38.057Z,4.60
2019-02-24T16:03:09.769Z,3.80
2019-02-24T16:05:40.370Z,4.13
2019-02-24T16:08:11.901Z,2.50
2019-02-24T16:10:43.382Z,2.10
2019-02-24T16:13:16.978Z,2.70
2019-02-24T16:15:46.357Z,2.90
2019-02-24T16:18:18.130Z,3.43
2019-02-24T16:20:48.741Z,3.67
2019-02-24T16:23:19.402Z,3.30
2019-02-24T16:25:50.038Z,4.10
2019-02-24T16:28:20.657Z,2.80
2019-02-24T16:30:51.271Z,8.30
2019-02-24T16:33:21.907Z,5.13
2019-02-24T16:35:52.525Z,3.37
2019-02-24T16:38:23.156Z,3.47
2019-02-24T16:40:53.770Z,4.23
2019-02-24T16:43:24.408Z,5.00
2019-02-24T16:45:55.029Z,3.67
2019-02-24T16:48:25.733Z,4.33
2019-02-24T16:50:56.343Z,3.70
2019-02-24T16:53:26.909Z,4.23
2019-02-24T16:55:57.528Z,4.03
2019-02-24T16:58:28.246Z,4.20
2019-02-24T17:00:58.793Z,6.87
2019-02-24T17:03:29.520Z,5.70
2019-02-24T17:06:00.199Z,4.23
2019-02-24T17:08:30.837Z,4.93
2019-02-24T17:11:07.374Z,6.20
2019-02-24T17:13:33.694Z,3.90
2019-02-24T17:16:04.326Z,4.83
2019-02-24T17:18:35.018Z,4.07
2019-02-24T17:21:05.555Z,4.77
2019-02-24T17:23:36.180Z,2.80
2019-02-24T17:26:06.793Z,3.67
2019-02-24T17:28:37.435Z,4.20
2019-02-24T17:31:09.113Z,3.93
2019-02-24T17:33:39.753Z,7.37
2019-02-24T17:36:11.432Z,5.40
2019-02-24T17:38:42.138Z,11.17
2019-02-24T17:41:12.760Z,12.47
2019-02-24T17:43:43.466Z,10.30
2019-02-24T17:46:14.069Z,10.43
2019-02-24T17:48:44.694Z,11.63
2019-02-24T17:51:21.076Z,7.40
2019-02-24T17:53:47.828Z,6.10
2019-02-24T17:56:19.414Z,3.80
2019-02-24T17:58:51.527Z,5.00
2019-02-24T18:01:22.381Z,4.03
2019-02-24T18:03:54.570Z,9.30
2019-02-24T18:06:25.333Z,4.50
2019-02-24T18:08:56.033Z,7.20
2019-02-24T18:11:26.577Z,7.67
2019-02-24T18:13:57.276Z,5.13
2019-02-24T18:16:27.963Z,11.13
2019-02-24T18:18:58.593Z,7.17
2019-02-24T18:21:29.204Z,6.17
2019-02-24T18:23:59.961Z,5.73
2019-02-24T18:26:30.559Z,8.67
2019-02-24T18:29:01.185Z,5.50
2019-02-24T18:31:31.879Z,4.80
2019-02-24T18:34:02.509Z,6.10
2019-02-24T18:36:33.114Z,5.93
2019-02-24T18:39:03.929Z,4.53
2019-02-24T18:41:35.737Z,3.67
2019-02-24T18:44:06.388Z,4.73
2019-02-24T18:46:36.992Z,4.93
2019-02-24T18:49:07.702Z,9.10
2019-02-24T18:51:38.654Z,4.10
2019-02-24T18:54:10.348Z,4.10
2019-02-24T18:56:40.875Z,11.50
2019-02-24T18:59:11.583Z,15.03
2019-02-24T19:01:43.240Z,9.77
2019-02-24T19:04:13.786Z,14.47
2019-02-24T19:06:44.328Z,44.83
2019-02-24T19:09:16.065Z,138.13
2019-02-24T19:11:46.772Z,31.03
2019-02-24T19:14:17.421Z,24.07
2019-02-24T19:16:49.186Z,17.80
2019-02-24T19:19:25.525Z,19.33
2019-02-24T19:21:52.207Z,42.07
2019-02-24T19:24:22.914Z,66.30
2019-02-24T19:26:53.531Z,31.60
2019-02-24T19:29:24.115Z,29.40
2019-02-24T19:31:54.729Z,28.10
2019-02-24T19:34:25.353Z,33.37
2019-02-24T19:36:55.884Z,17.30
2019-02-24T19:39:26.456Z,14.80
2019-02-24T19:41:57.006Z,15.80
2019-02-24T19:44:27.639Z,14.73
2019-02-24T19:46:58.245Z,23.40
2019-02-24T19:49:28.805Z,15.30
2019-02-24T19:51:59.412Z,11.67
2019-02-24T19:54:29.987Z,11.77
2019-02-24T19:57:00.519Z,12.20
2019-02-24T19:59:31.077Z,11.60
2019-02-24T20:02:01.691Z,9.33
2019-02-24T20:04:32.314Z,11.33
2019-02-24T20:07:02.908Z,6.97
2019-02-24T20:09:33.521Z,6.10
2019-02-24T20:12:04.153Z,9.37
2019-02-24T20:14:34.794Z,7.50
2019-02-24T20:17:05.479Z,7.00
2019-02-24T20:19:36.093Z,12.87
2019-02-24T20:22:06.633Z,11.17
2019-02-24T20:24:37.182Z,10.70
2019-02-24T20:27:07.901Z,13.30
2019-02-24T20:29:38.532Z,11.07
2019-02-24T20:32:09.169Z,8.77
2019-02-24T20:34:39.873Z,10.57
2019-02-24T20:37:10.486Z,9.47
2019-02-24T20:39:41.064Z,10.07
2019-02-24T20:42:11.676Z,10.60
2019-02-24T20:44:42.341Z,15.37
2019-02-24T20:47:12.890Z,20.00
2019-02-24T20:49:43.532Z,13.20
2019-02-24T20:52:14.130Z,7.80
2019-02-24T20:54:44.701Z,12.70
2019-02-24T20:57:15.316Z,15.47
2019-02-24T20:59:46.306Z,24.07
2019-02-24T21:02:16.914Z,21.20
2019-02-24T21:04:47.508Z,18.83
2019-02-24T21:07:18.037Z,9.63
2019-02-24T21:09:48.594Z,10.33
2019-02-24T21:12:19.173Z,12.63
2019-02-24T21:14:49.801Z,10.80
2019-02-24T21:17:20.414Z,11.90
2019-02-24T21:19:51.053Z,6.80
2019-02-24T21:22:21.698Z,7.67
2019-02-24T21:24:52.307Z,7.90
2019-02-24T21:27:22.920Z,9.70
2019-02-24T21:29:53.520Z,11.30
2019-02-24T21:32:24.172Z,11.63
2019-02-24T21:34:54.768Z,12.57
2019-02-24T21:37:25.321Z,12.10
2019-02-24T21:39:55.941Z,11.80
2019-02-24T21:42:26.568Z,13.37
2019-02-24T21:44:57.176Z,14.10
2019-02-24T21:47:27.793Z,17.67
2019-02-24T21:49:59.389Z,10.27
2019-02-24T21:52:29.937Z,17.93
2019-02-24T21:55:00.475Z,11.40
2019-02-24T21:57:31.101Z,14.80
2019-02-24T22:00:01.643Z,12.03
2019-02-24T22:02:34.044Z,11.47
2019-02-24T22:05:05.349Z,11.10
2019-02-24T22:07:35.930Z,10.87
2019-02-24T22:10:07.054Z,9.93
2019-02-24T22:12:37.841Z,12.23
2019-02-24T22:15:10.533Z,10.70
2019-02-24T22:17:41.101Z,13.50
2019-02-24T22:20:11.886Z,13.17
2019-02-24T22:22:42.521Z,10.43
2019-02-24T22:25:13.300Z,10.60
2019-02-24T22:27:43.981Z,12.97
2019-02-24T22:30:16.130Z,12.87
2019-02-24T22:32:46.761Z,12.63
2019-02-24T22:35:17.490Z,11.47
2019-02-24T22:37:48.125Z,11.27
2019-02-24T22:40:18.749Z,7.37
2019-02-24T22:42:49.377Z,7.50
2019-02-24T22:45:20.040Z,9.70
2019-02-24T22:47:50.645Z,8.47
2019-02-24T22:50:21.176Z,7.33
2019-02-24T22:52:51.809Z,7.23
2019-02-24T22:55:22.338Z,6.40
2019-02-24T22:57:52.885Z,5.03
2019-02-24T23:01:01.637Z,5.80
2019-02-24T23:03:39.229Z,7.63
2019-02-24T23:12:11.025Z,7.00
2019-02-24T23:14:41.643Z,8.33
2019-02-24T23:17:12.262Z,9.53
2019-02-24T23:19:43.935Z,8.20
2019-02-24T23:22:14.634Z,8.60
2019-02-24T23:24:45.241Z,7.27
2019-02-24T23:27:15.781Z,8.17
2019-02-24T23:29:46.407Z,10.20
2019-02-24T23:32:17.022Z,9.53
2019-02-24T23:34:47.557Z,8.07
2019-02-24T23:37:18.109Z,8.53
2019-02-24T23:39:48.795Z,5.70
2019-02-24T23:42:19.415Z,7.27
2019-02-24T23:44:50.081Z,5.53
2019-02-24T23:47:20.710Z,7.37
2019-02-24T23:49:51.242Z,7.63
2019-02-24T23:52:21.785Z,5.87
2019-02-24T23:54:52.413Z,7.13
2019-02-24T23:57:23.053Z,6.67
2019-02-24T23:59:53.593Z,4.83
